Nenita — V7SY9 — position and weather

sailwx.info

Track history (hours):
 
Tides and Currents Weather Stations Pressure Air Temp Water Temp Dewpoint Dewpoint Depression Visibility Wind Speed Wind Dir Waves Ship Positions

Nenita

Last reported at 2017-Nov-19 14:41 UTC. Time now 2017-Dec-18 08:48 UTC.
Position N 27°02' W 017°25'.
Warning: this ship's position is 28 days out of date.

Length 225 m; draft 7 m.

Type: Cargo ship. MMSI: 538006917.

Date/timePositionNaut miles runAvg speedWind from/ knotsBaromVisibWave heightAir tempDewpointWater temp
2017-Nov-19 14:41N 27°02' W 017°25'211.5
2017-Nov-19 14:30N 27°03' W 017°23'611.9
2017-Nov-19 14:00N 27°07' W 017°18'612.4
2017-Nov-19 13:30N 27°11' W 017°13'612.5
2017-Nov-19 12:59N 27°16' W 017°08'8513.5
2017-Nov-19 06:42N 28°18' W 016°03'313.5
2017-Nov-19 06:30N 28°20' W 016°01'713.7
2017-Nov-19 06:00N 28°25' W 015°56'713.7
2017-Nov-19 05:30N 28°31' W 015°51'713.9
2017-Nov-19 05:00N 28°36' W 015°45'713.8
2017-Nov-19 04:30N 28°41' W 015°40'713.8
2017-Nov-19 04:00N 28°46' W 015°34'713.8
2017-Nov-19 03:30N 28°50' W 015°29'713.7
2017-Nov-19 03:00N 28°55' W 015°23'713.4
2017-Nov-19 02:30N 28°59' W 015°17'64513.3
2017-Nov-17 01:53N 35°58' W 005°35'512.4
2017-Nov-17 01:31N 35°59' W 005°30'611.7
2017-Nov-17 01:00N 36°01' W 005°23'612.4
2017-Nov-17 00:30N 36°07' W 005°24'1 2.3
2017-Nov-16 23:58N 36°08' W 005°23'0 0.2
2017-Nov-16 23:28N 36°08' W 005°23'0 0.0
2017-Nov-16 22:58N 36°08' W 005°23'0 0.1
2017-Nov-16 22:28N 36°08' W 005°23'0 0.1
2017-Nov-16 21:58N 36°08' W 005°23'0 0.1
2017-Nov-16 21:28N 36°08' W 005°23'1 0.1
2017-Nov-16 13:23N 36°08' W 005°23'2 5.3
2017-Nov-16 12:59N 36°06' W 005°21'1 2.5
2017-Nov-16 12:27N 36°06' W 005°20'2 5.4
2017-Nov-16 12:00N 36°06' W 005°17'3 5.6
2017-Nov-16 11:29N 36°07' W 005°14'1 1.5
2017-Nov-16 10:54N 36°07' W 005°15'0 0.8
2017-Nov-16 10:29N 36°07' W 005°14'1 1.8
2017-Nov-16 09:48N 36°07' W 005°13'  
2017-Nov-12 21:47N 36°38' E 013°59'411.7
2017-Nov-12 21:27N 36°37' E 014°04'1011.6
2017-Nov-12 20:34N 36°34' E 014°16'111.8
2017-Nov-12 20:28N 36°33' E 014°17'511.7
2017-Nov-12 20:00N 36°32' E 014°24'612.1
2017-Nov-12 19:30N 36°30' E 014°31'612.1
2017-Nov-12 19:00N 36°28' E 014°38'6911.4
2017-Nov-12 12:58N 37°11' E 015°46'711.8
2017-Nov-12 12:24N 37°16' E 015°51'611.9
2017-Nov-12 11:54N 37°20' E 015°56'511.9
2017-Nov-12 11:29N 37°24' E 015°60'611.7
2017-Nov-12 11:00N 37°29' E 016°04'611.7
2017-Nov-12 10:29N 37°33' E 016°09'611.6
2017-Nov-12 10:00N 37°37' E 016°14'811.8
2017-Nov-12 09:21N 37°43' E 016°20'43410.3
2017-Nov-10 15:00N 44°25' E 012°43'713.5
2017-Nov-10 14:30N 44°29' E 012°35'713.1
2017-Nov-10 14:00N 44°30' E 012°25'  
Track history (hours):
 
Tides and Currents Weather Stations Pressure Air Temp Water Temp Dewpoint Dewpoint Depression Visibility Wind Speed Wind Dir Waves Ship Positions

Nenita

Last reported at 2017-Nov-19 14:41 UTC. Time now 2017-Dec-18 08:48 UTC.
Position N 27°02' W 017°25'.
Warning: this ship's position is 28 days out of date.

Length 225 m; draft 7 m.

Type: Cargo ship. MMSI: 538006917.

Date/timePositionNaut miles runAvg speedWind from/ knotsBaromVisibWave heightAir tempDewpointWater temp
2017-Nov-19 14:41N 27°02' W 017°25'211.5
2017-Nov-19 14:30N 27°03' W 017°23'611.9
2017-Nov-19 14:00N 27°07' W 017°18'612.4
2017-Nov-19 13:30N 27°11' W 017°13'612.5
2017-Nov-19 12:59N 27°16' W 017°08'8513.5
2017-Nov-19 06:42N 28°18' W 016°03'313.5
2017-Nov-19 06:30N 28°20' W 016°01'713.7
2017-Nov-19 06:00N 28°25' W 015°56'713.7
2017-Nov-19 05:30N 28°31' W 015°51'713.9
2017-Nov-19 05:00N 28°36' W 015°45'713.8
2017-Nov-19 04:30N 28°41' W 015°40'713.8
2017-Nov-19 04:00N 28°46' W 015°34'713.8
2017-Nov-19 03:30N 28°50' W 015°29'713.7
2017-Nov-19 03:00N 28°55' W 015°23'713.4
2017-Nov-19 02:30N 28°59' W 015°17'64513.3
2017-Nov-17 01:53N 35°58' W 005°35'512.4
2017-Nov-17 01:31N 35°59' W 005°30'611.7
2017-Nov-17 01:00N 36°01' W 005°23'612.4
2017-Nov-17 00:30N 36°07' W 005°24'1 2.3
2017-Nov-16 23:58N 36°08' W 005°23'0 0.2
2017-Nov-16 23:28N 36°08' W 005°23'0 0.0
2017-Nov-16 22:58N 36°08' W 005°23'0 0.1
2017-Nov-16 22:28N 36°08' W 005°23'0 0.1
2017-Nov-16 21:58N 36°08' W 005°23'0 0.1
2017-Nov-16 21:28N 36°08' W 005°23'1 0.1
2017-Nov-16 13:23N 36°08' W 005°23'2 5.3
2017-Nov-16 12:59N 36°06' W 005°21'1 2.5
2017-Nov-16 12:27N 36°06' W 005°20'2 5.4
2017-Nov-16 12:00N 36°06' W 005°17'3 5.6
2017-Nov-16 11:29N 36°07' W 005°14'1 1.5
2017-Nov-16 10:54N 36°07' W 005°15'0 0.8
2017-Nov-16 10:29N 36°07' W 005°14'1 1.8
2017-Nov-16 09:48N 36°07' W 005°13'  
2017-Nov-12 21:47N 36°38' E 013°59'411.7
2017-Nov-12 21:27N 36°37' E 014°04'1011.6
2017-Nov-12 20:34N 36°34' E 014°16'111.8
2017-Nov-12 20:28N 36°33' E 014°17'511.7
2017-Nov-12 20:00N 36°32' E 014°24'612.1
2017-Nov-12 19:30N 36°30' E 014°31'612.1
2017-Nov-12 19:00N 36°28' E 014°38'6911.4
2017-Nov-12 12:58N 37°11' E 015°46'711.8
2017-Nov-12 12:24N 37°16' E 015°51'611.9
2017-Nov-12 11:54N 37°20' E 015°56'511.9
2017-Nov-12 11:29N 37°24' E 015°60'611.7
2017-Nov-12 11:00N 37°29' E 016°04'611.7
2017-Nov-12 10:29N 37°33' E 016°09'611.6
2017-Nov-12 10:00N 37°37' E 016°14'811.8
2017-Nov-12 09:21N 37°43' E 016°20'43410.3
2017-Nov-10 15:00N 44°25' E 012°43'713.5
2017-Nov-10 14:30N 44°29' E 012°35'713.1
2017-Nov-10 14:00N 44°30' E 012°25'  

Dump ship's entire track history